| time (UTC) | temp F | wind direction | speed MPH | gust MPH | rain 1hr in | rain 24hr in | rain mn in | humidity % | barometer mb |
| 20260507151334 | 61 | 307 | 0.0 | 0.0 | 0.00 | 0.31 | 0.25 | 64 | 1005.1 |
| 20260507150834 | 61 | 215 | 0.0 | 0.0 | 0.00 | 0.31 | 0.25 | 64 | 1005.1 |
| 20260507150334 | 61 | 210 | 0.0 | 0.0 | 0.00 | 0.31 | 0.25 | 65 | 1005.1 |
| 20260507145834 | 60 | 321 | 0.0 | 0.0 | 0.00 | 0.31 | 0.25 | 65 | 1005.1 |
| 20260507145334 | 60 | 317 | 0.0 | 0.0 | 0.00 | 0.31 | 0.25 | 66 | 1005.1 |
| 20260507144834 | 59 | 343 | 0.0 | 0.0 | 0.00 | 0.31 | 0.25 | 74 | 1005.1 |
| 20260507144334 | 59 | 34 | 0.0 | 5.0 | 0.00 | 0.31 | 0.25 | 75 | 1005.1 |
| 20260507143834 | 58 | 161 | 0.0 | 6.0 | 0.00 | 0.31 | 0.25 | 73 | 1005.1 |
| 20260507143334 | 57 | 45 | 5.0 | 6.0 | 0.00 | 0.31 | 0.25 | 80 | 1005.1 |
| 20260507142834 | 57 | 219 | 0.0 | 0.0 | 0.00 | 0.31 | 0.25 | 78 | 1005.3 |
| 20260507142334 | 56 | 178 | 0.0 | 0.0 | 0.00 | 0.31 | 0.25 | 77 | 1005.3 |
| 20260507141834 | 56 | 344 | 0.0 | 0.0 | 0.00 | 0.31 | 0.25 | 81 | 1005.3 |
| 20260507141334 | 56 | 349 | 0.0 | 0.0 | 0.00 | 0.31 | 0.25 | 80 | 1005.5 |
| 20260507140834 | 55 | 210 | 0.0 | 3.0 | 0.00 | 0.31 | 0.25 | 80 | 1005.5 |
| 20260507140334 | 55 | 34 | 0.0 | 3.0 | 0.00 | 0.31 | 0.25 | 80 | 1005.5 |
| 20260507135834 | 54 | 302 | 0.0 | 1.0 | 0.00 | 0.31 | 0.25 | 82 | 1005.2 |
| 20260507133834 | 53 | 233 | 0.0 | 0.0 | 0.00 | 0.31 | 0.25 | 86 | 1005.6 |
| 20260507133334 | 53 | 254 | 0.0 | 0.0 | 0.00 | 0.31 | 0.25 | 88 | 1005.6 |
| 20260507132834 | 53 | 210 | 0.0 | 2.0 | 0.00 | 0.31 | 0.25 | 89 | 1005.2 |
| 20260507132334 | 52 | 359 | 0.0 | 2.0 | 0.00 | 0.31 | 0.25 | 90 | 1005.2 |
| 20260507131834 | 52 | 270 | 0.0 | 5.0 | 0.00 | 0.31 | 0.25 | 91 | 1005.2 |
| 20260507131334 | 51 | 197 | 0.0 | 5.0 | 0.00 | 0.31 | 0.25 | 91 | 1005.4 |
| 20260507130834 | 51 | 250 | 0.0 | 0.0 | 0.00 | 0.31 | 0.25 | 91 | 1005.4 |
| 20260507130334 | 51 | 259 | 0.0 | 0.0 | 0.00 | 0.31 | 0.25 | 92 | 1005.4 |
| 20260507125834 | 51 | 279 | 0.0 | 0.0 | 0.00 | 0.31 | 0.25 | 92 | 1005.4 |
| 20260507125334 | 51 | 266 | 0.0 | 0.0 | 0.00 | 0.31 | 0.25 | 92 | 1005.4 |
| 20260507124834 | 51 | 266 | 0.0 | 0.0 | 0.00 | 0.31 | 0.25 | 92 | 1005.4 |
| 20260507123834 | 51 | 269 | 0.0 | 0.0 | 0.00 | 0.31 | 0.25 | 92 | 1005.7 |
| 20260507123334 | 51 | 269 | 0.0 | 0.0 | 0.00 | 0.31 | 0.25 | 92 | 1005.7 |
| 20260507122334 | 50 | 269 | 0.0 | 0.0 | 0.01 | 0.31 | 0.25 | 92 | 1005.8 |
| 20260507121834 | 50 | 269 | 0.0 | 0.0 | 0.01 | 0.31 | 0.25 | 92 | 1005.8 |
| 20260507121335 | 50 | 269 | 0.0 | 0.0 | 0.02 | 0.31 | 0.25 | 92 | 1005.3 |
| 20260507120834 | 50 | 269 | 0.0 | 0.0 | 0.03 | 0.31 | 0.25 | 92 | 1005.3 |
| 20260507120334 | 50 | 269 | 0.0 | 0.0 | 0.04 | 0.31 | 0.25 | 92 | 1005.3 |
| 20260507115834 | 49 | 269 | 0.0 | 0.0 | 0.04 | 0.31 | 0.25 | 92 | 1005.4 |
| 20260507115334 | 49 | 269 | 0.0 | 0.0 | 0.04 | 0.31 | 0.25 | 91 | 1005.4 |
| 20260507114834 | 49 | 269 | 0.0 | 0.0 | 0.04 | 0.31 | 0.25 | 92 | 1005.4 |
| 20260507114334 | 49 | 269 | 0.0 | 0.0 | 0.04 | 0.31 | 0.25 | 91 | 1005.7 |
| 20260507113834 | 49 | 269 | 0.0 | 0.0 | 0.04 | 0.31 | 0.25 | 91 | 1005.7 |
| 20260507112834 | 49 | 269 | 0.0 | 0.0 | 0.04 | 0.31 | 0.25 | 91 | 1005.2 |
| 20260507112334 | 49 | 269 | 0.0 | 0.0 | 0.03 | 0.30 | 0.24 | 91 | 1005.2 |
| 20260507111835 | 49 | 269 | 0.0 | 0.0 | 0.03 | 0.30 | 0.24 | 91 | 1005.2 |
| 20260507111334 | 49 | 269 | 0.0 | 0.0 | 0.02 | 0.29 | 0.23 | 91 | 1005.6 |
| 20260507110834 | 49 | 269 | 0.0 | 0.0 | 0.02 | 0.28 | 0.22 | 91 | 1005.6 |
| 20260507110334 | 49 | 269 | 0.0 | 0.0 | 0.01 | 0.27 | 0.21 | 91 | 1005.6 |
| 20260507105835 | 49 | 269 | 0.0 | 0.0 | 0.02 | 0.27 | 0.21 | 91 | 1004.8 |
| 20260507105334 | 49 | 282 | 0.0 | 0.0 | 0.02 | 0.27 | 0.21 | 91 | 1004.8 |
| 20260507104834 | 49 | 282 | 0.0 | 0.0 | 0.02 | 0.27 | 0.21 | 91 | 1004.8 |
| 20260507104335 | 49 | 282 | 0.0 | 0.0 | 0.02 | 0.27 | 0.21 | 91 | 1005.2 |
| 20260507103834 | 49 | 288 | 0.0 | 0.0 | 0.03 | 0.27 | 0.21 | 91 | 1005.2 |
| 20260507103334 | 49 | 292 | 0.0 | 0.0 | 0.03 | 0.27 | 0.21 | 91 | 1005.2 |
| 20260507102835 | 49 | 292 | 0.0 | 0.0 | 0.03 | 0.27 | 0.21 | 91 | 1005.3 |
| 20260507102334 | 50 | 274 | 0.0 | 0.0 | 0.03 | 0.27 | 0.21 | 91 | 1005.3 |
| 20260507101834 | 50 | 183 | 0.0 | 0.0 | 0.03 | 0.27 | 0.21 | 91 | 1005.3 |
| 20260507101334 | 49 | 240 | 0.0 | 0.0 | 0.03 | 0.27 | 0.21 | 91 | 1005.1 |
| 20260507100834 | 49 | 240 | 0.0 | 0.0 | 0.02 | 0.26 | 0.20 | 91 | 1005.1 |
| 20260507100334 | 49 | 224 | 0.0 | 2.0 | 0.02 | 0.26 | 0.20 | 91 | 1005.1 |
| 20260507095834 | 50 | 224 | 0.0 | 2.0 | 0.01 | 0.25 | 0.19 | 91 | 1005.1 |
| 20260507095335 | 50 | 232 | 0.0 | 0.0 | 0.02 | 0.25 | 0.19 | 90 | 1005.1 |
| 20260507094836 | 50 | 232 | 0.0 | 0.0 | 0.02 | 0.25 | 0.19 | 91 | 1005.1 |
| 20260507092834 | 50 | 211 | 0.0 | 3.0 | 0.03 | 0.24 | 0.18 | 90 | 1004.9 |
| 20260507092335 | 50 | 212 | 0.0 | 4.0 | 0.03 | 0.24 | 0.18 | 90 | 1004.9 |
| 20260507091834 | 51 | 212 | 3.0 | 4.0 | 0.04 | 0.24 | 0.18 | 90 | 1004.9 |
| 20260507091334 | 51 | 209 | 0.0 | 2.0 | 0.07 | 0.24 | 0.18 | 90 | 1004.5 |
| 20260507090834 | 51 | 1 | 0.0 | 0.0 | 0.09 | 0.24 | 0.18 | 90 | 1004.5 |
| 20260507090334 | 52 | 231 | 0.0 | 1.0 | 0.11 | 0.24 | 0.18 | 90 | 1004.5 |
| 20260507085334 | 52 | 231 | 0.0 | 0.0 | 0.12 | 0.23 | 0.17 | 91 | 1004.5 |
| 20260507084834 | 53 | 231 | 0.0 | 0.0 | 0.13 | 0.23 | 0.17 | 91 | 1004.5 |
| 20260507083834 | 53 | 115 | 0.0 | 0.0 | 0.14 | 0.22 | 0.16 | 91 | 1004.1 |
| 20260507083334 | 53 | 115 | 0.0 | 0.0 | 0.15 | 0.21 | 0.15 | 91 | 1004.1 |
| 20260507082834 | 53 | 112 | 0.0 | 0.0 | 0.15 | 0.21 | 0.15 | 91 | 1004.4 |
| 20260507082334 | 53 | 112 | 0.0 | 0.0 | 0.15 | 0.21 | 0.15 | 91 | 1004.4 |
| 20260507081334 | 54 | 131 | 0.0 | 0.0 | 0.11 | 0.17 | 0.11 | 90 | 1004.3 |
| 20260507080834 | 54 | 133 | 0.0 | 0.0 | 0.09 | 0.15 | 0.09 | 90 | 1004.3 |
| 20260507080334 | 54 | 133 | 0.0 | 1.0 | 0.07 | 0.13 | 0.07 | 90 | 1004.3 |
| 20260507075834 | 54 | 133 | 0.0 | 1.0 | 0.06 | 0.12 | 0.06 | 90 | 1004.0 |
| 20260507075334 | 54 | 83 | 0.0 | 0.0 | 0.05 | 0.11 | 0.05 | 90 | 1004.0 |
| 20260507074834 | 55 | 328 | 0.0 | 0.0 | 0.04 | 0.10 | 0.04 | 90 | 1004.0 |
| 20260507074334 | 55 | 290 | 0.0 | 0.0 | 0.03 | 0.09 | 0.03 | 90 | 1003.6 |
| 20260507073834 | 55 | 230 | 0.0 | 0.0 | 0.02 | 0.08 | 0.02 | 89 | 1003.6 |
| 20260507073334 | 56 | 238 | 0.0 | 0.0 | 0.00 | 0.06 | 0.00 | 90 | 1003.6 |
| 20260507072834 | 56 | 52 | 0.0 | 0.0 | 0.00 | 0.06 | 0.00 | 90 | 1003.1 |
| 20260507072334 | 56 | 58 | 0.0 | 0.0 | 0.00 | 0.06 | 0.00 | 91 | 1003.1 |
| 20260507071834 | 56 | 40 | 0.0 | 0.0 | 0.00 | 0.06 | 0.00 | 91 | 1003.1 |
| 20260507071334 | 57 | 211 | 0.0 | 0.0 | 0.00 | 0.06 | 0.00 | 92 | 1003.1 |
| 20260507070334 | 58 | 212 | 0.0 | 0.0 | 0.00 | 0.06 | 0.00 | 92 | 1003.1 |
| 20260507065834 | 58 | 212 | 0.0 | 0.0 | 0.00 | 0.06 | 0.00 | 92 | 1003.1 |
| 20260507065334 | 58 | 212 | 0.0 | 0.0 | 0.00 | 0.06 | 0.00 | 92 | 1003.1 |
| 20260507064834 | 57 | 212 | 0.0 | 0.0 | 0.00 | 0.06 | 0.00 | 92 | 1003.1 |
| 20260507064334 | 57 | 212 | 0.0 | 0.0 | 0.00 | 0.06 | 0.00 | 92 | 1003.2 |
| 20260507063835 | 57 | 212 | 0.0 | 0.0 | 0.00 | 0.06 | 0.00 | 92 | 1003.2 |
| 20260507063334 | 57 | 212 | 0.0 | 0.0 | 0.00 | 0.06 | 0.00 | 92 | 1003.2 |
| 20260507062334 | 58 | 212 | 0.0 | 0.0 | 0.00 | 0.06 | 0.00 | 92 | 1003.5 |
| 20260507061834 | 58 | 212 | 0.0 | 0.0 | 0.00 | 0.06 | 0.00 | 92 | 1003.5 |
| 20260507061334 | 58 | 212 | 0.0 | 0.0 | 0.00 | 0.06 | 0.00 | 92 | 1003.6 |
| 20260507060834 | 57 | 212 | 0.0 | 0.0 | 0.00 | 0.06 | 0.00 | 92 | 1003.6 |
| 20260507055834 | 58 | 212 | 0.0 | 0.0 | 0.00 | 0.06 | 0.00 | 92 | 1003.8 |
| 20260507055334 | 57 | 212 | 0.0 | 0.0 | 0.00 | 0.06 | 0.00 | 92 | 1003.8 |
| 20260507054834 | 58 | 212 | 0.0 | 0.0 | 0.00 | 0.06 | 0.00 | 92 | 1003.8 |
| 20260507053834 | 57 | 212 | 0.0 | 0.0 | 0.00 | 0.06 | 0.00 | 92 | 1003.8 |
| 20260507053334 | 57 | 212 | 0.0 | 0.0 | 0.00 | 0.06 | 0.00 | 92 | 1003.8 |
| 20260507052834 | 57 | 212 | 0.0 | 0.0 | 0.00 | 0.06 | 0.00 | 92 | 1003.9 |
| 20260507051834 | 57 | 212 | 0.0 | 0.0 | 0.00 | 0.06 | 0.00 | 92 | 1003.9 |
| 20260507051334 | 57 | 212 | 0.0 | 0.0 | 0.00 | 0.06 | 0.00 | 92 | 1004.1 |
| 20260507050834 | 57 | 212 | 0.0 | 0.0 | 0.00 | 0.06 | 0.00 | 92 | 1004.1 |
| 20260507050336 | 57 | 212 | 0.0 | 0.0 | 0.00 | 0.06 | 0.00 | 92 | 1004.1 |
| 20260507045334 | 57 | 212 | 0.0 | 0.0 | 0.00 | 0.06 | 0.00 | 92 | 1004.1 |
| 20260507044834 | 57 | 212 | 0.0 | 0.0 | 0.00 | 0.06 | 0.00 | 92 | 1004.1 |
| 20260507044334 | 57 | 212 | 0.0 | 0.0 | 0.00 | 0.06 | 0.00 | 92 | 1004.1 |
| 20260507043834 | 57 | 212 | 0.0 | 0.0 | 0.00 | 0.06 | 0.00 | 92 | 1004.1 |
| 20260507043335 | 57 | 212 | 0.0 | 0.0 | 0.00 | 0.06 | 0.00 | 92 | 1004.1 |
| 20260507041834 | 57 | 212 | 0.0 | 0.0 | 0.00 | 0.06 | 0.00 | 92 | 1004.0 |
| 20260507041335 | 57 | 212 | 0.0 | 0.0 | 0.00 | 0.06 | 0.00 | 92 | 1004.0 |
| 20260507040834 | 57 | 212 | 0.0 | 0.0 | 0.00 | 0.06 | 0.00 | 92 | 1004.0 |
| 20260507035834 | 57 | 212 | 0.0 | 0.0 | 0.00 | 0.06 | 0.00 | 92 | 1004.1 |
| 20260507035335 | 57 | 212 | 0.0 | 0.0 | 0.00 | 0.06 | 0.00 | 92 | 1004.1 |
| 20260507034834 | 57 | 211 | 0.0 | 0.0 | 0.00 | 0.06 | 0.00 | 92 | 1004.1 |
| 20260507034334 | 57 | 211 | 0.0 | 0.0 | 0.00 | 0.06 | 0.00 | 92 | 1004.4 |
| 20260507033834 | 57 | 211 | 0.0 | 0.0 | 0.00 | 0.06 | 0.00 | 92 | 1004.4 |
| 20260507032834 | 57 | 211 | 0.0 | 0.0 | 0.00 | 0.06 | 0.00 | 92 | 1004.1 |
| 20260507032334 | 57 | 211 | 0.0 | 0.0 | 0.00 | 0.06 | 0.00 | 92 | 1004.1 |
| 20260507031834 | 57 | 211 | 0.0 | 0.0 | 0.00 | 0.06 | 0.00 | 92 | 1004.1 |
| 20260507031334 | 57 | 211 | 0.0 | 0.0 | 0.00 | 0.06 | 0.00 | 92 | 1004.1 |
| 20260507030834 | 57 | 211 | 0.0 | 0.0 | 0.00 | 0.06 | 0.00 | 92 | 1004.1 |
| 20260507030336 | 57 | 211 | 0.0 | 0.0 | 0.00 | 0.06 | 0.00 | 92 | 1004.1 |
| 20260507025834 | 57 | 211 | 0.0 | 0.0 | 0.00 | 0.06 | 0.06 | 92 | 1003.9 |
| 20260507025334 | 57 | 213 | 0.0 | 0.0 | 0.00 | 0.06 | 0.06 | 92 | 1003.9 |
| 20260507024834 | 57 | 213 | 0.0 | 0.0 | 0.00 | 0.06 | 0.06 | 92 | 1003.9 |
| 20260507023834 | 57 | 205 | 0.0 | 0.0 | 0.00 | 0.06 | 0.06 | 92 | 1003.7 |
| 20260507023334 | 57 | 205 | 0.0 | 0.0 | 0.00 | 0.06 | 0.06 | 92 | 1003.7 |
| 20260507022835 | 57 | 205 | 0.0 | 0.0 | 0.00 | 0.06 | 0.06 | 92 | 1004.1 |
| 20260507022335 | 57 | 205 | 0.0 | 0.0 | 0.00 | 0.06 | 0.06 | 92 | 1004.1 |
| 20260507021834 | 57 | 205 | 0.0 | 0.0 | 0.00 | 0.06 | 0.06 | 92 | 1004.1 |
| 20260507021334 | 57 | 205 | 0.0 | 0.0 | 0.00 | 0.06 | 0.06 | 92 | 1004.1 |
| 20260507015849 | 57 | 205 | 0.0 | 0.0 | 0.00 | 0.06 | 0.06 | 92 | 1004.6 |
| 20260507015334 | 57 | 205 | 0.0 | 0.0 | 0.00 | 0.06 | 0.06 | 92 | 1004.6 |
| 20260507014834 | 57 | 205 | 0.0 | 0.0 | 0.00 | 0.06 | 0.06 | 92 | 1004.6 |
| 20260507014334 | 57 | 205 | 0.0 | 0.0 | 0.00 | 0.06 | 0.06 | 92 | 1004.6 |
| 20260507013834 | 57 | 205 | 0.0 | 0.0 | 0.00 | 0.06 | 0.06 | 92 | 1004.6 |
| 20260507013335 | 57 | 205 | 0.0 | 0.0 | 0.00 | 0.06 | 0.06 | 92 | 1004.6 |
| 20260507012834 | 57 | 205 | 0.0 | 0.0 | 0.00 | 0.06 | 0.06 | 92 | 1004.6 |
| 20260507012334 | 57 | 205 | 0.0 | 0.0 | 0.00 | 0.06 | 0.06 | 92 | 1004.6 |
| 20260507011835 | 57 | 205 | 0.0 | 0.0 | 0.00 | 0.06 | 0.06 | 92 | 1004.6 |
| 20260507011334 | 57 | 205 | 0.0 | 0.0 | 0.00 | 0.06 | 0.06 | 92 | 1004.7 |
| 20260507010834 | 57 | 205 | 0.0 | 0.0 | 0.00 | 0.06 | 0.06 | 92 | 1004.7 |
| 20260507010334 | 57 | 205 | 0.0 | 0.0 | 0.00 | 0.06 | 0.06 | 92 | 1004.7 |
| 20260507005335 | 57 | 204 | 0.0 | 0.0 | 0.01 | 0.06 | 0.06 | 92 | 1004.6 |
| 20260507004834 | 57 | 204 | 0.0 | 0.0 | 0.01 | 0.06 | 0.06 | 92 | 1004.6 |
| 20260507004334 | 57 | 205 | 0.0 | 0.0 | 0.01 | 0.06 | 0.06 | 92 | 1004.5 |
| 20260507003834 | 57 | 234 | 0.0 | 0.0 | 0.01 | 0.06 | 0.06 | 91 | 1004.5 |
| 20260507003334 | 57 | 234 | 0.0 | 0.0 | 0.01 | 0.06 | 0.06 | 91 | 1004.5 |
| 20260507002834 | 57 | 234 | 0.0 | 0.0 | 0.01 | 0.06 | 0.06 | 91 | 1004.5 |
| 20260507002334 | 57 | 234 | 0.0 | 0.0 | 0.01 | 0.06 | 0.06 | 91 | 1004.5 |
| 20260507001834 | 57 | 234 | 0.0 | 0.0 | 0.01 | 0.06 | 0.06 | 91 | 1004.5 |
| 20260507001334 | 57 | 235 | 0.0 | 0.0 | 0.01 | 0.06 | 0.06 | 91 | 1004.3 |
| 20260507000835 | 57 | 205 | 0.0 | 0.0 | 0.01 | 0.06 | 0.06 | 91 | 1004.3 |
| 20260507000336 | 57 | 205 | 0.0 | 0.0 | 0.01 | 0.06 | 0.06 | 91 | 1004.3 |
| 20260506235835 | 57 | 205 | 0.0 | 0.0 | 0.01 | 0.06 | 0.06 | 91 | 1004.4 |
| 20260506235334 | 57 | 219 | 0.0 | 0.0 | 0.00 | 0.05 | 0.05 | 91 | 1004.4 |
| 20260506234834 | 57 | 215 | 0.0 | 0.0 | 0.00 | 0.05 | 0.05 | 91 | 1004.4 |
| 20260506234334 | 57 | 218 | 0.0 | 1.0 | 0.01 | 0.05 | 0.05 | 91 | 1004.5 |
| 20260506233335 | 57 | 200 | 0.0 | 2.0 | 0.01 | 0.05 | 0.05 | 91 | 1004.5 |
| 20260506232834 | 57 | 219 | 0.0 | 1.0 | 0.01 | 0.05 | 0.05 | 91 | 1004.6 |
| 20260506231834 | 57 | 211 | 0.0 | 0.0 | 0.03 | 0.05 | 0.05 | 91 | 1004.6 |
| 20260506231334 | 57 | 231 | 0.0 | 0.0 | 0.03 | 0.05 | 0.05 | 91 | 1004.6 |
| 20260506230834 | 57 | 200 | 0.0 | 0.0 | 0.03 | 0.05 | 0.05 | 91 | 1004.6 |
| 20260506230334 | 57 | 200 | 0.0 | 0.0 | 0.03 | 0.05 | 0.05 | 91 | 1004.6 |
| 20260506225834 | 57 | 202 | 0.0 | 0.0 | 0.03 | 0.05 | 0.05 | 91 | 1004.4 |
| 20260506224834 | 57 | 203 | 0.0 | 0.0 | 0.03 | 0.05 | 0.05 | 90 | 1004.4 |
| 20260506224334 | 57 | 205 | 0.0 | 0.0 | 0.02 | 0.04 | 0.04 | 90 | 1004.5 |
| 20260506223834 | 58 | 214 | 0.0 | 0.0 | 0.02 | 0.04 | 0.04 | 90 | 1004.5 |
| 20260506223334 | 58 | 215 | 0.0 | 0.0 | 0.02 | 0.04 | 0.04 | 90 | 1004.5 |
| 20260506222834 | 58 | 215 | 0.0 | 0.0 | 0.02 | 0.04 | 0.04 | 90 | 1004.9 |
| 20260506222334 | 58 | 231 | 0.0 | 0.0 | 0.01 | 0.03 | 0.03 | 90 | 1004.9 |
| 20260506221835 | 58 | 218 | 0.0 | 5.0 | 0.00 | 0.02 | 0.02 | 90 | 1004.9 |
| 20260506221334 | 58 | 191 | 0.0 | 5.0 | 0.00 | 0.02 | 0.02 | 89 | 1005.0 |
| 20260506220334 | 58 | 231 | 0.0 | 0.0 | 0.00 | 0.02 | 0.02 | 89 | 1005.0 |
| 20260506215834 | 58 | 208 | 0.0 | 0.0 | 0.00 | 0.02 | 0.02 | 89 | 1005.1 |
| 20260506214834 | 58 | 210 | 0.0 | 0.0 | 0.00 | 0.02 | 0.02 | 89 | 1005.1 |
| 20260506214334 | 58 | 209 | 0.0 | 2.0 | 0.00 | 0.02 | 0.02 | 89 | 1005.1 |
| 20260506213834 | 58 | 205 | 0.0 | 2.0 | 0.00 | 0.02 | 0.02 | 89 | 1005.1 |
| 20260506213334 | 59 | 216 | 0.0 | 2.0 | 0.00 | 0.02 | 0.02 | 89 | 1005.1 |
| 20260506212334 | 59 | 205 | 0.0 | 0.0 | 0.00 | 0.02 | 0.02 | 89 | 1005.1 |
| 20260506211834 | 59 | 206 | 0.0 | 0.0 | 0.00 | 0.02 | 0.02 | 88 | 1005.1 |
| 20260506211334 | 59 | 206 | 0.0 | 0.0 | 0.00 | 0.02 | 0.02 | 89 | 1005.2 |
| 20260506210834 | 59 | 233 | 0.0 | 0.0 | 0.01 | 0.02 | 0.02 | 89 | 1005.2 |
| 20260506210334 | 59 | 221 | 0.0 | 3.0 | 0.01 | 0.02 | 0.02 | 88 | 1005.2 |
| 20260506205834 | 59 | 231 | 0.0 | 3.0 | 0.02 | 0.02 | 0.02 | 88 | 1005.2 |
| 20260506205334 | 59 | 215 | 0.0 | 0.0 | 0.02 | 0.02 | 0.02 | 88 | 1005.2 |
| 20260506204834 | 59 | 214 | 0.0 | 0.0 | 0.02 | 0.02 | 0.02 | 88 | 1005.2 |
| 20260506204334 | 59 | 232 | 0.0 | 0.0 | 0.02 | 0.02 | 0.02 | 88 | 1005.3 |
| 20260506203834 | 59 | 227 | 0.0 | 0.0 | 0.02 | 0.02 | 0.02 | 88 | 1005.3 |
| 20260506203335 | 59 | 236 | 0.0 | 0.0 | 0.02 | 0.02 | 0.02 | 88 | 1005.3 |
| 20260506202334 | 60 | 197 | 0.0 | 0.0 | 0.02 | 0.02 | 0.02 | 87 | 1005.6 |
| 20260506201834 | 60 | 198 | 0.0 | 0.0 | 0.02 | 0.02 | 0.02 | 88 | 1005.6 |
| 20260506201334 | 60 | 200 | 0.0 | 0.0 | 0.02 | 0.02 | 0.02 | 87 | 1005.6 |
| 20260506200834 | 60 | 198 | 0.0 | 0.0 | 0.01 | 0.01 | 0.01 | 87 | 1005.6 |
| 20260506195334 | 61 | 238 | 0.0 | 0.0 | 0.00 | 0.00 | 0.00 | 85 | 1005.7 |
| 20260506194834 | 62 | 202 | 0.0 | 0.0 | 0.00 | 0.00 | 0.00 | 84 | 1005.8 |
| 20260506193834 | 62 | 215 | 0.0 | 3.0 | 0.00 | 0.00 | 0.00 | 82 | 1005.7 |
| 20260506193334 | 63 | 203 | 0.0 | 0.0 | 0.00 | 0.00 | 0.00 | 81 | 1005.8 |
| 20260506192334 | 63 | 255 | 0.0 | 3.0 | 0.00 | 0.00 | 0.00 | 79 | 1005.7 |
| 20260506191834 | 63 | 209 | 0.0 | 0.0 | 0.00 | 0.00 | 0.00 | 79 | 1005.7 |
| 20260506190834 | 64 | 230 | 0.0 | 2.0 | 0.00 | 0.00 | 0.00 | 79 | 1005.9 |
| 20260506190334 | 64 | 207 | 0.0 | 2.0 | 0.00 | 0.00 | 0.00 | 79 | 1005.9 |
| 20260506185835 | 64 | 243 | 0.0 | 0.0 | 0.00 | 0.00 | 0.00 | 79 | 1005.7 |
| 20260506185334 | 64 | 208 | 0.0 | 5.0 | 0.00 | 0.00 | 0.00 | 78 | 1005.7 |
| 20260506184335 | 64 | 203 | 0.0 | 4.0 | 0.00 | 0.00 | 0.00 | 78 | 1006.0 |
| 20260506183334 | 65 | 210 | 0.0 | 5.0 | 0.00 | 0.00 | 0.00 | 77 | 1006.0 |
| 20260506182834 | 65 | 225 | 0.0 | 6.0 | 0.00 | 0.00 | 0.00 | 76 | 1006.2 |
| 20260506182334 | 65 | 207 | 0.0 | 6.0 | 0.00 | 0.00 | 0.00 | 76 | 1006.2 |
| 20260506181834 | 65 | 204 | 0.0 | 6.0 | 0.00 | 0.00 | 0.00 | 76 | 1006.2 |
| 20260506181334 | 66 | 206 | 0.0 | 1.0 | 0.00 | 0.00 | 0.00 | 76 | 1006.3 |
| 20260506180834 | 66 | 193 | 0.0 | 5.0 | 0.00 | 0.00 | 0.00 | 75 | 1006.3 |
| 20260506180334 | 66 | 204 | 0.0 | 5.0 | 0.00 | 0.00 | 0.00 | 75 | 1006.3 |
| 20260506175834 | 67 | 203 | 0.0 | 3.0 | 0.00 | 0.00 | 0.00 | 74 | 1006.7 |
| 20260506175334 | 67 | 203 | 0.0 | 6.0 | 0.00 | 0.00 | 0.00 | 74 | 1006.7 |
| 20260506174834 | 67 | 234 | 0.0 | 6.0 | 0.00 | 0.00 | 0.00 | 74 | 1006.7 |
| 20260506174334 | 67 | 207 | 0.0 | 6.0 | 0.00 | 0.00 | 0.00 | 74 | 1006.9 |
| 20260506173834 | 67 | 206 | 0.0 | 6.0 | 0.00 | 0.00 | 0.00 | 74 | 1006.9 |
| 20260506173334 | 67 | 180 | 6.0 | 7.0 | 0.00 | 0.00 | 0.00 | 74 | 1006.9 |
| 20260506172834 | 68 | 267 | 0.0 | 7.0 | 0.00 | 0.00 | 0.00 | 72 | 1006.7 |
| 20260506171834 | 69 | 198 | 0.0 | 7.0 | 0.00 | 0.00 | 0.00 | 71 | 1006.7 |
| 20260506171334 | 69 | 230 | 0.0 | 5.0 | 0.00 | 0.00 | 0.00 | 72 | 1006.7 |
| 20260506170834 | 68 | 214 | 0.0 | 5.0 | 0.00 | 0.00 | 0.00 | 73 | 1006.7 |
| 20260506170334 | 68 | 184 | 0.0 | 6.0 | 0.00 | 0.00 | 0.00 | 73 | 1006.7 |
| 20260506165834 | 68 | 188 | 0.0 | 6.0 | 0.00 | 0.00 | 0.00 | 74 | 1007.0 |
| 20260506165334 | 68 | 199 | 0.0 | 4.0 | 0.00 | 0.00 | 0.00 | 73 | 1007.0 |
| 20260506164834 | 68 | 194 | 0.0 | 8.0 | 0.00 | 0.00 | 0.00 | 73 | 1007.0 |
| 20260506163834 | 68 | 185 | 0.0 | 7.0 | 0.00 | 0.00 | 0.00 | 72 | 1007.3 |
| 20260506162834 | 68 | 204 | 0.0 | 6.0 | 0.00 | 0.00 | 0.00 | 73 | 1007.4 |
| 20260506161834 | 68 | 183 | 0.0 | 5.0 | 0.00 | 0.00 | 0.00 | 73 | 1007.4 |
| 20260506161334 | 68 | 236 | 0.0 | 7.0 | 0.00 | 0.00 | 0.00 | 73 | 1007.6 |
| 20260506160834 | 68 | 218 | 0.0 | 7.0 | 0.00 | 0.00 | 0.00 | 72 | 1007.6 |
| 20260506160334 | 68 | 214 | 0.0 | 4.0 | 0.00 | 0.00 | 0.00 | 72 | 1007.6 |
| 20260506155334 | 69 | 214 | 0.0 | 4.0 | 0.00 | 0.00 | 0.00 | 71 | 1007.8 |
| 20260506154334 | 69 | 195 | 0.0 | 4.0 | 0.00 | 0.00 | 0.00 | 72 | 1008.1 |
| 20260506153834 | 69 | 215 | 0.0 | 4.0 | 0.00 | 0.00 | 0.00 | 72 | 1008.1 |
| 20260506153334 | 68 | 197 | 0.0 | 4.0 | 0.00 | 0.00 | 0.00 | 74 | 1008.1 |
| 20260506152834 | 68 | 201 | 0.0 | 6.0 | 0.00 | 0.00 | 0.00 | 73 | 1008.3 |
| 20260506152335 | 67 | 194 | 0.0 | 6.0 | 0.00 | 0.00 | 0.00 | 74 | 1008.3 |
| 20260506151834 | 67 | 186 | 0.0 | 3.0 | 0.00 | 0.00 | 0.00 | 74 | 1008.3 |